Terminal Aerodrome Forecast
Issued by NWS

Home | Current Version | Previous Version | Graphics & Text | Print | Product List | Glossary On
Versions: 1 2 3 4 5 6 7 8 9 10 11 12 13 14
000
FTUS43 KBIS 081100
TAFMOT
TAF
KMOT 081120Z 0812/0912 30012KT P6SM SKC
     FM081500 31016KT P6SM SCT050 SCT100
     FM090200 01005KT P6SM SKC=

USA.gov is the U.S. government's official web portal to all federal, state and local government web resources and services.